sensor_id;sensor_type;location;lat;lon;timestamp;P1;durP1;ratioP1;P2;durP2;ratioP2
42614;SDS011;28754;47.700;7.924;2023-08-17T00:01:57;3.63;;;2.50;;
42614;SDS011;28754;47.700;7.924;2023-08-17T00:04:44;3.35;;;2.42;;
42614;SDS011;28754;47.700;7.924;2023-08-17T00:07:30;4.35;;;2.17;;
42614;SDS011;28754;47.700;7.924;2023-08-17T00:10:17;4.53;;;2.35;;
42614;SDS011;28754;47.700;7.924;2023-08-17T00:13:04;6.63;;;2.05;;
42614;SDS011;28754;47.700;7.924;2023-08-17T00:15:50;4.82;;;2.40;;
42614;SDS011;28754;47.700;7.924;2023-08-17T00:18:37;4.97;;;2.45;;
42614;SDS011;28754;47.700;7.924;2023-08-17T00:21:24;10.85;;;3.05;;
42614;SDS011;28754;47.700;7.924;2023-08-17T00:24:10;4.38;;;2.28;;
42614;SDS011;28754;47.700;7.924;2023-08-17T00:26:57;3.42;;;2.60;;
42614;SDS011;28754;47.700;7.924;2023-08-17T00:29:44;7.32;;;2.75;;
42614;SDS011;28754;47.700;7.924;2023-08-17T00:32:30;3.53;;;2.75;;
42614;SDS011;28754;47.700;7.924;2023-08-17T00:35:17;4.55;;;2.78;;
42614;SDS011;28754;47.700;7.924;2023-08-17T00:38:04;4.60;;;2.38;;
42614;SDS011;28754;47.700;7.924;2023-08-17T00:40:51;4.45;;;2.40;;
42614;SDS011;28754;47.700;7.924;2023-08-17T00:43:38;3.60;;;2.40;;
42614;SDS011;28754;47.700;7.924;2023-08-17T00:46:24;3.70;;;2.40;;
42614;SDS011;28754;47.700;7.924;2023-08-17T00:49:12;4.13;;;2.90;;
42614;SDS011;28754;47.700;7.924;2023-08-17T00:52:01;2.95;;;2.30;;
42614;SDS011;28754;47.700;7.924;2023-08-17T00:54:49;3.80;;;2.60;;
42614;SDS011;28754;47.700;7.924;2023-08-17T00:57:35;4.35;;;2.30;;
42614;SDS011;28754;47.700;7.924;2023-08-17T01:00:24;4.30;;;2.53;;
42614;SDS011;28754;47.700;7.924;2023-08-17T01:03:12;3.97;;;2.45;;
42614;SDS011;28754;47.700;7.924;2023-08-17T01:06:01;3.85;;;2.38;;
42614;SDS011;28754;47.700;7.924;2023-08-17T01:08:48;4.03;;;2.88;;
42614;SDS011;28754;47.700;7.924;2023-08-17T01:11:44;5.00;;;3.00;;
42614;SDS011;28754;47.700;7.924;2023-08-17T01:17:40;5.07;;;2.28;;
42614;SDS011;28754;47.700;7.924;2023-08-17T01:21:10;6.05;;;2.75;;
42614;SDS011;28754;47.700;7.924;2023-08-17T01:24:02;5.78;;;2.50;;
42614;SDS011;28754;47.700;7.924;2023-08-17T01:26:49;3.08;;;2.40;;
42614;SDS011;28754;47.700;7.924;2023-08-17T01:29:36;4.13;;;2.50;;
42614;SDS011;28754;47.700;7.924;2023-08-17T01:32:28;4.30;;;2.78;;
42614;SDS011;28754;47.700;7.924;2023-08-17T01:35:23;4.97;;;2.65;;
42614;SDS011;28754;47.700;7.924;2023-08-17T01:38:34;6.50;;;3.10;;
42614;SDS011;28754;47.700;7.924;2023-08-17T01:41:26;6.88;;;2.72;;
42614;SDS011;28754;47.700;7.924;2023-08-17T01:44:14;3.88;;;2.50;;
42614;SDS011;28754;47.700;7.924;2023-08-17T01:47:01;5.65;;;2.97;;
42614;SDS011;28754;47.700;7.924;2023-08-17T01:49:48;3.47;;;2.45;;
42614;SDS011;28754;47.700;7.924;2023-08-17T01:52:35;7.07;;;2.92;;
42614;SDS011;28754;47.700;7.924;2023-08-17T01:55:21;5.85;;;2.72;;
42614;SDS011;28754;47.700;7.924;2023-08-17T01:58:11;7.80;;;3.03;;
42614;SDS011;28754;47.700;7.924;2023-08-17T02:00:57;4.75;;;2.47;;
42614;SDS011;28754;47.700;7.924;2023-08-17T02:03:45;5.00;;;2.47;;
42614;SDS011;28754;47.700;7.924;2023-08-17T02:06:32;7.15;;;2.85;;
42614;SDS011;28754;47.700;7.924;2023-08-17T02:09:19;5.03;;;2.80;;
42614;SDS011;28754;47.700;7.924;2023-08-17T02:12:06;4.18;;;2.50;;
42614;SDS011;28754;47.700;7.924;2023-08-17T02:14:54;5.90;;;2.78;;
42614;SDS011;28754;47.700;7.924;2023-08-17T02:17:40;4.70;;;3.00;;
42614;SDS011;28754;47.700;7.924;2023-08-17T02:20:29;4.88;;;3.08;;
42614;SDS011;28754;47.700;7.924;2023-08-17T02:23:16;16.27;;;3.35;;
42614;SDS011;28754;47.700;7.924;2023-08-17T02:26:02;5.05;;;3.00;;
42614;SDS011;28754;47.700;7.924;2023-08-17T02:28:51;3.00;;;2.47;;
42614;SDS011;28754;47.700;7.924;2023-08-17T02:31:38;2.63;;;2.17;;
42614;SDS011;28754;47.700;7.924;2023-08-17T02:34:24;3.88;;;2.60;;
42614;SDS011;28754;47.700;7.924;2023-08-17T02:37:11;7.10;;;2.47;;
42614;SDS011;28754;47.700;7.924;2023-08-17T02:39:58;3.45;;;2.50;;
42614;SDS011;28754;47.700;7.924;2023-08-17T02:42:44;7.57;;;2.42;;
42614;SDS011;28754;47.700;7.924;2023-08-17T02:45:31;4.80;;;3.05;;
42614;SDS011;28754;47.700;7.924;2023-08-17T02:48:20;3.80;;;2.88;;
42614;SDS011;28754;47.700;7.924;2023-08-17T02:51:06;4.15;;;3.22;;
42614;SDS011;28754;47.700;7.924;2023-08-17T02:53:53;5.22;;;2.80;;
42614;SDS011;28754;47.700;7.924;2023-08-17T02:56:40;4.65;;;2.92;;
42614;SDS011;28754;47.700;7.924;2023-08-17T02:59:27;3.75;;;2.63;;
42614;SDS011;28754;47.700;7.924;2023-08-17T03:02:13;7.32;;;2.97;;
42614;SDS011;28754;47.700;7.924;2023-08-17T03:05:00;2.97;;;2.55;;
42614;SDS011;28754;47.700;7.924;2023-08-17T03:07:47;5.78;;;3.15;;
42614;SDS011;28754;47.700;7.924;2023-08-17T03:10:34;4.88;;;3.22;;
42614;SDS011;28754;47.700;7.924;2023-08-17T03:13:20;4.70;;;3.22;;
42614;SDS011;28754;47.700;7.924;2023-08-17T03:16:07;4.47;;;2.88;;
42614;SDS011;28754;47.700;7.924;2023-08-17T03:18:54;5.13;;;3.38;;
42614;SDS011;28754;47.700;7.924;2023-08-17T03:21:41;3.65;;;3.03;;
42614;SDS011;28754;47.700;7.924;2023-08-17T03:24:28;4.50;;;2.55;;
42614;SDS011;28754;47.700;7.924;2023-08-17T03:27:15;3.95;;;2.90;;
42614;SDS011;28754;47.700;7.924;2023-08-17T03:30:03;6.53;;;3.13;;
42614;SDS011;28754;47.700;7.924;2023-08-17T03:32:51;7.55;;;3.45;;
42614;SDS011;28754;47.700;7.924;2023-08-17T03:35:38;4.68;;;3.35;;
42614;SDS011;28754;47.700;7.924;2023-08-17T03:38:27;6.10;;;3.50;;
42614;SDS011;28754;47.700;7.924;2023-08-17T03:41:15;4.43;;;3.40;;
42614;SDS011;28754;47.700;7.924;2023-08-17T03:44:03;3.83;;;2.58;;
42614;SDS011;28754;47.700;7.924;2023-08-17T03:46:52;3.67;;;2.88;;
42614;SDS011;28754;47.700;7.924;2023-08-17T03:49:38;3.47;;;2.67;;
42614;SDS011;28754;47.700;7.924;2023-08-17T03:52:25;5.10;;;3.22;;
42614;SDS011;28754;47.700;7.924;2023-08-17T03:55:12;5.88;;;3.17;;
42614;SDS011;28754;47.700;7.924;2023-08-17T03:57:59;3.60;;;2.97;;
42614;SDS011;28754;47.700;7.924;2023-08-17T04:04:01;5.55;;;3.22;;
42614;SDS011;28754;47.700;7.924;2023-08-17T04:06:48;5.78;;;3.60;;
42614;SDS011;28754;47.700;7.924;2023-08-17T04:09:35;5.82;;;2.85;;
42614;SDS011;28754;47.700;7.924;2023-08-17T04:12:21;6.13;;;2.78;;
42614;SDS011;28754;47.700;7.924;2023-08-17T04:15:09;5.85;;;2.45;;
42614;SDS011;28754;47.700;7.924;2023-08-17T04:17:56;3.45;;;2.67;;
42614;SDS011;28754;47.700;7.924;2023-08-17T04:20:42;3.42;;;2.45;;
42614;SDS011;28754;47.700;7.924;2023-08-17T04:23:29;6.97;;;4.13;;
42614;SDS011;28754;47.700;7.924;2023-08-17T04:26:16;3.90;;;2.80;;
42614;SDS011;28754;47.700;7.924;2023-08-17T04:29:02;3.72;;;2.90;;
42614;SDS011;28754;47.700;7.924;2023-08-17T04:31:49;5.60;;;2.67;;
42614;SDS011;28754;47.700;7.924;2023-08-17T04:34:36;6.15;;;3.45;;
42614;SDS011;28754;47.700;7.924;2023-08-17T04:37:24;3.92;;;2.63;;
42614;SDS011;28754;47.700;7.924;2023-08-17T04:40:11;6.38;;;3.38;;
42614;SDS011;28754;47.700;7.924;2023-08-17T04:42:58;6.90;;;2.97;;
42614;SDS011;28754;47.700;7.924;2023-08-17T04:45:46;3.75;;;2.63;;
42614;SDS011;28754;47.700;7.924;2023-08-17T04:48:34;4.28;;;2.85;;
42614;SDS011;28754;47.700;7.924;2023-08-17T04:51:21;7.63;;;2.80;;
42614;SDS011;28754;47.700;7.924;2023-08-17T04:54:08;7.53;;;3.17;;
42614;SDS011;28754;47.700;7.924;2023-08-17T04:56:55;3.92;;;2.60;;
42614;SDS011;28754;47.700;7.924;2023-08-17T04:59:41;6.28;;;2.85;;
42614;SDS011;28754;47.700;7.924;2023-08-17T05:02:29;3.17;;;2.50;;
42614;SDS011;28754;47.700;7.924;2023-08-17T05:05:17;7.95;;;3.47;;
42614;SDS011;28754;47.700;7.924;2023-08-17T05:08:05;4.32;;;2.92;;
42614;SDS011;28754;47.700;7.924;2023-08-17T05:10:51;4.88;;;2.67;;
42614;SDS011;28754;47.700;7.924;2023-08-17T05:13:38;4.47;;;2.85;;
42614;SDS011;28754;47.700;7.924;2023-08-17T05:16:25;5.45;;;3.30;;
42614;SDS011;28754;47.700;7.924;2023-08-17T05:19:12;4.72;;;3.08;;
42614;SDS011;28754;47.700;7.924;2023-08-17T05:21:59;3.97;;;2.90;;
42614;SDS011;28754;47.700;7.924;2023-08-17T05:24:46;4.15;;;2.70;;
42614;SDS011;28754;47.700;7.924;2023-08-17T05:27:33;3.63;;;2.95;;
42614;SDS011;28754;47.700;7.924;2023-08-17T05:30:20;4.40;;;2.75;;
42614;SDS011;28754;47.700;7.924;2023-08-17T05:33:07;5.13;;;3.03;;
42614;SDS011;28754;47.700;7.924;2023-08-17T05:35:54;6.97;;;3.10;;
42614;SDS011;28754;47.700;7.924;2023-08-17T05:38:41;8.88;;;3.47;;
42614;SDS011;28754;47.700;7.924;2023-08-17T05:41:28;6.75;;;3.30;;
42614;SDS011;28754;47.700;7.924;2023-08-17T05:44:14;6.65;;;2.80;;
42614;SDS011;28754;47.700;7.924;2023-08-17T05:47:01;5.00;;;3.88;;
42614;SDS011;28754;47.700;7.924;2023-08-17T05:49:48;10.77;;;7.18;;
42614;SDS011;28754;47.700;7.924;2023-08-17T05:52:35;8.73;;;5.78;;
42614;SDS011;28754;47.700;7.924;2023-08-17T05:55:22;11.50;;;4.97;;
42614;SDS011;28754;47.700;7.924;2023-08-17T05:58:08;7.47;;;3.25;;
42614;SDS011;28754;47.700;7.924;2023-08-17T06:01:03;6.22;;;3.65;;
42614;SDS011;28754;47.700;7.924;2023-08-17T06:03:53;7.13;;;4.20;;
42614;SDS011;28754;47.700;7.924;2023-08-17T06:06:40;8.35;;;4.43;;
42614;SDS011;28754;47.700;7.924;2023-08-17T06:09:27;5.47;;;4.00;;
42614;SDS011;28754;47.700;7.924;2023-08-17T06:12:14;5.80;;;3.00;;
42614;SDS011;28754;47.700;7.924;2023-08-17T06:15:04;5.32;;;2.85;;
42614;SDS011;28754;47.700;7.924;2023-08-17T06:17:51;5.00;;;3.40;;
42614;SDS011;28754;47.700;7.924;2023-08-17T06:20:38;4.35;;;3.20;;
42614;SDS011;28754;47.700;7.924;2023-08-17T06:23:25;6.55;;;3.53;;
42614;SDS011;28754;47.700;7.924;2023-08-17T06:26:11;7.88;;;4.93;;
42614;SDS011;28754;47.700;7.924;2023-08-17T06:28:58;5.18;;;3.78;;
42614;SDS011;28754;47.700;7.924;2023-08-17T06:31:45;8.20;;;4.22;;
42614;SDS011;28754;47.700;7.924;2023-08-17T06:34:31;7.47;;;3.78;;
42614;SDS011;28754;47.700;7.924;2023-08-17T06:37:18;8.65;;;3.58;;
42614;SDS011;28754;47.700;7.924;2023-08-17T06:40:05;8.05;;;5.35;;
42614;SDS011;28754;47.700;7.924;2023-08-17T06:42:53;5.45;;;3.88;;
42614;SDS011;28754;47.700;7.924;2023-08-17T06:45:40;4.63;;;3.15;;
42614;SDS011;28754;47.700;7.924;2023-08-17T06:48:27;4.47;;;3.25;;
42614;SDS011;28754;47.700;7.924;2023-08-17T06:51:14;7.20;;;3.05;;
42614;SDS011;28754;47.700;7.924;2023-08-17T06:54:01;4.97;;;2.83;;
42614;SDS011;28754;47.700;7.924;2023-08-17T06:56:48;6.20;;;2.58;;
42614;SDS011;28754;47.700;7.924;2023-08-17T06:59:34;7.13;;;2.50;;
42614;SDS011;28754;47.700;7.924;2023-08-17T07:02:21;3.55;;;2.65;;
42614;SDS011;28754;47.700;7.924;2023-08-17T07:05:08;4.47;;;3.10;;
42614;SDS011;28754;47.700;7.924;2023-08-17T07:07:56;4.82;;;3.03;;
42614;SDS011;28754;47.700;7.924;2023-08-17T07:10:43;5.78;;;3.33;;
42614;SDS011;28754;47.700;7.924;2023-08-17T07:13:30;5.53;;;4.38;;
42614;SDS011;28754;47.700;7.924;2023-08-17T07:16:17;5.70;;;3.72;;
42614;SDS011;28754;47.700;7.924;2023-08-17T07:19:06;3.88;;;2.97;;
42614;SDS011;28754;47.700;7.924;2023-08-17T07:21:52;6.05;;;3.35;;
42614;SDS011;28754;47.700;7.924;2023-08-17T07:24:39;2.92;;;2.53;;
42614;SDS011;28754;47.700;7.924;2023-08-17T07:27:26;6.70;;;3.70;;
42614;SDS011;28754;47.700;7.924;2023-08-17T07:30:13;4.07;;;2.30;;
42614;SDS011;28754;47.700;7.924;2023-08-17T07:33:00;6.60;;;4.40;;
42614;SDS011;28754;47.700;7.924;2023-08-17T07:35:46;5.35;;;3.50;;
42614;SDS011;28754;47.700;7.924;2023-08-17T07:38:33;6.30;;;3.17;;
42614;SDS011;28754;47.700;7.924;2023-08-17T07:41:20;4.80;;;3.28;;
42614;SDS011;28754;47.700;7.924;2023-08-17T07:44:06;4.43;;;3.53;;
42614;SDS011;28754;47.700;7.924;2023-08-17T07:46:53;6.22;;;3.08;;
42614;SDS011;28754;47.700;7.924;2023-08-17T07:49:40;4.05;;;3.15;;
42614;SDS011;28754;47.700;7.924;2023-08-17T07:52:29;4.72;;;2.63;;
42614;SDS011;28754;47.700;7.924;2023-08-17T07:55:16;8.40;;;2.83;;
42614;SDS011;28754;47.700;7.924;2023-08-17T07:58:03;4.38;;;2.47;;
42614;SDS011;28754;47.700;7.924;2023-08-17T08:00:51;6.20;;;3.13;;
42614;SDS011;28754;47.700;7.924;2023-08-17T08:03:38;6.90;;;3.20;;
42614;SDS011;28754;47.700;7.924;2023-08-17T08:06:25;4.40;;;3.00;;
42614;SDS011;28754;47.700;7.924;2023-08-17T08:09:12;5.95;;;3.40;;
42614;SDS011;28754;47.700;7.924;2023-08-17T08:11:59;4.18;;;3.28;;
42614;SDS011;28754;47.700;7.924;2023-08-17T08:14:46;4.75;;;3.42;;
42614;SDS011;28754;47.700;7.924;2023-08-17T08:17:32;5.78;;;3.40;;
42614;SDS011;28754;47.700;7.924;2023-08-17T08:20:20;4.05;;;2.80;;
42614;SDS011;28754;47.700;7.924;2023-08-17T08:23:07;5.20;;;4.07;;
42614;SDS011;28754;47.700;7.924;2023-08-17T08:25:54;7.07;;;3.25;;
42614;SDS011;28754;47.700;7.924;2023-08-17T08:28:40;7.28;;;4.85;;
42614;SDS011;28754;47.700;7.924;2023-08-17T08:31:27;5.38;;;3.72;;
42614;SDS011;28754;47.700;7.924;2023-08-17T08:34:14;7.00;;;3.55;;
42614;SDS011;28754;47.700;7.924;2023-08-17T08:37:00;6.90;;;4.15;;
42614;SDS011;28754;47.700;7.924;2023-08-17T08:39:48;6.20;;;2.92;;
42614;SDS011;28754;47.700;7.924;2023-08-17T08:42:37;6.00;;;3.97;;
42614;SDS011;28754;47.700;7.924;2023-08-17T08:45:23;5.68;;;4.03;;
42614;SDS011;28754;47.700;7.924;2023-08-17T08:48:15;3.63;;;2.90;;
42614;SDS011;28754;47.700;7.924;2023-08-17T08:51:06;5.68;;;3.17;;
42614;SDS011;28754;47.700;7.924;2023-08-17T08:54:01;6.10;;;3.75;;
42614;SDS011;28754;47.700;7.924;2023-08-17T08:56:54;4.20;;;3.20;;
42614;SDS011;28754;47.700;7.924;2023-08-17T08:59:49;7.70;;;3.38;;
42614;SDS011;28754;47.700;7.924;2023-08-17T09:02:35;7.18;;;3.55;;
42614;SDS011;28754;47.700;7.924;2023-08-17T09:05:23;5.93;;;4.10;;
42614;SDS011;28754;47.700;7.924;2023-08-17T09:08:11;6.47;;;4.97;;
42614;SDS011;28754;47.700;7.924;2023-08-17T09:10:59;6.93;;;4.13;;
42614;SDS011;28754;47.700;7.924;2023-08-17T09:13:46;10.02;;;4.40;;
42614;SDS011;28754;47.700;7.924;2023-08-17T09:16:32;9.15;;;4.25;;
42614;SDS011;28754;47.700;7.924;2023-08-17T09:19:19;5.57;;;4.40;;
42614;SDS011;28754;47.700;7.924;2023-08-17T09:22:06;8.35;;;4.45;;
42614;SDS011;28754;47.700;7.924;2023-08-17T09:24:53;4.07;;;3.42;;
42614;SDS011;28754;47.700;7.924;2023-08-17T09:27:39;5.88;;;4.55;;
42614;SDS011;28754;47.700;7.924;2023-08-17T09:30:27;7.47;;;4.13;;
42614;SDS011;28754;47.700;7.924;2023-08-17T09:33:13;4.28;;;3.67;;
42614;SDS011;28754;47.700;7.924;2023-08-17T09:36:00;4.85;;;3.60;;
42614;SDS011;28754;47.700;7.924;2023-08-17T09:38:47;4.13;;;3.72;;
42614;SDS011;28754;47.700;7.924;2023-08-17T09:41:40;4.93;;;4.05;;
42614;SDS011;28754;47.700;7.924;2023-08-17T09:44:27;4.45;;;3.70;;
42614;SDS011;28754;47.700;7.924;2023-08-17T09:47:15;4.88;;;3.20;;
42614;SDS011;28754;47.700;7.924;2023-08-17T09:50:05;11.30;;;4.15;;
42614;SDS011;28754;47.700;7.924;2023-08-17T09:52:53;3.25;;;2.92;;
42614;SDS011;28754;47.700;7.924;2023-08-17T09:55:44;4.13;;;3.20;;
42614;SDS011;28754;47.700;7.924;2023-08-17T09:58:32;4.35;;;3.50;;
42614;SDS011;28754;47.700;7.924;2023-08-17T10:01:18;4.22;;;3.33;;
42614;SDS011;28754;47.700;7.924;2023-08-17T10:04:07;6.30;;;3.00;;
42614;SDS011;28754;47.700;7.924;2023-08-17T10:06:58;3.92;;;3.20;;
42614;SDS011;28754;47.700;7.924;2023-08-17T10:09:53;4.20;;;2.43;;
42614;SDS011;28754;47.700;7.924;2023-08-17T10:12:58;5.60;;;3.20;;
42614;SDS011;28754;47.700;7.924;2023-08-17T10:15:58;4.28;;;3.00;;
42614;SDS011;28754;47.700;7.924;2023-08-17T10:22:27;9.10;;;3.70;;
42614;SDS011;28754;47.700;7.924;2023-08-17T10:25:30;4.35;;;2.65;;
42614;SDS011;28754;47.700;7.924;2023-08-17T10:28:19;6.63;;;2.80;;
42614;SDS011;28754;47.700;7.924;2023-08-17T10:31:08;6.18;;;2.90;;
42614;SDS011;28754;47.700;7.924;2023-08-17T10:33:56;4.57;;;2.53;;
42614;SDS011;28754;47.700;7.924;2023-08-17T10:36:44;6.38;;;2.58;;
42614;SDS011;28754;47.700;7.924;2023-08-17T10:39:31;4.82;;;2.83;;
42614;SDS011;28754;47.700;7.924;2023-08-17T10:42:33;3.35;;;2.40;;
42614;SDS011;28754;47.700;7.924;2023-08-17T10:45:25;5.22;;;2.30;;
42614;SDS011;28754;47.700;7.924;2023-08-17T10:51:02;4.13;;;2.22;;
42614;SDS011;28754;47.700;7.924;2023-08-17T10:53:51;3.15;;;2.20;;
42614;SDS011;28754;47.700;7.924;2023-08-17T10:56:39;7.65;;;2.38;;
42614;SDS011;28754;47.700;7.924;2023-08-17T10:59:26;3.35;;;2.55;;
42614;SDS011;28754;47.700;7.924;2023-08-17T11:02:13;3.97;;;2.53;;
42614;SDS011;28754;47.700;7.924;2023-08-17T11:05:00;2.78;;;2.08;;
42614;SDS011;28754;47.700;7.924;2023-08-17T11:07:50;4.05;;;2.35;;
42614;SDS011;28754;47.700;7.924;2023-08-17T11:10:37;4.47;;;2.30;;
42614;SDS011;28754;47.700;7.924;2023-08-17T11:13:24;4.32;;;2.15;;
42614;SDS011;28754;47.700;7.924;2023-08-17T11:16:16;4.53;;;2.42;;
42614;SDS011;28754;47.700;7.924;2023-08-17T11:19:05;4.28;;;2.30;;
42614;SDS011;28754;47.700;7.924;2023-08-17T11:21:52;3.22;;;2.30;;
42614;SDS011;28754;47.700;7.924;2023-08-17T11:24:39;5.85;;;2.70;;
42614;SDS011;28754;47.700;7.924;2023-08-17T11:27:30;4.68;;;2.40;;
42614;SDS011;28754;47.700;7.924;2023-08-17T11:30:16;5.32;;;2.53;;
42614;SDS011;28754;47.700;7.924;2023-08-17T11:33:04;6.68;;;2.63;;
42614;SDS011;28754;47.700;7.924;2023-08-17T11:35:53;7.07;;;2.53;;
42614;SDS011;28754;47.700;7.924;2023-08-17T11:38:44;4.75;;;2.08;;
42614;SDS011;28754;47.700;7.924;2023-08-17T11:41:31;3.60;;;2.47;;
42614;SDS011;28754;47.700;7.924;2023-08-17T11:44:18;11.32;;;3.08;;
42614;SDS011;28754;47.700;7.924;2023-08-17T11:47:07;8.70;;;3.00;;
42614;SDS011;28754;47.700;7.924;2023-08-17T11:50:01;5.45;;;3.05;;
42614;SDS011;28754;47.700;7.924;2023-08-17T11:52:48;12.10;;;2.80;;
42614;SDS011;28754;47.700;7.924;2023-08-17T11:55:35;3.70;;;2.10;;
42614;SDS011;28754;47.700;7.924;2023-08-17T11:58:41;7.38;;;3.08;;
42614;SDS011;28754;47.700;7.924;2023-08-17T12:01:32;6.38;;;3.30;;
42614;SDS011;28754;47.700;7.924;2023-08-17T12:04:23;6.00;;;2.97;;
42614;SDS011;28754;47.700;7.924;2023-08-17T12:07:10;8.65;;;2.78;;
42614;SDS011;28754;47.700;7.924;2023-08-17T12:09:57;5.07;;;2.45;;
42614;SDS011;28754;47.700;7.924;2023-08-17T12:12:44;5.40;;;3.30;;
42614;SDS011;28754;47.700;7.924;2023-08-17T12:15:36;3.40;;;2.22;;
42614;SDS011;28754;47.700;7.924;2023-08-17T12:18:24;5.60;;;2.65;;
42614;SDS011;28754;47.700;7.924;2023-08-17T12:21:11;5.75;;;2.33;;
42614;SDS011;28754;47.700;7.924;2023-08-17T12:23:58;6.97;;;2.05;;
42614;SDS011;28754;47.700;7.924;2023-08-17T12:26:46;9.32;;;2.47;;
42614;SDS011;28754;47.700;7.924;2023-08-17T12:29:33;5.18;;;2.92;;
42614;SDS011;28754;47.700;7.924;2023-08-17T12:32:20;11.07;;;3.55;;
42614;SDS011;28754;47.700;7.924;2023-08-17T12:35:10;6.18;;;2.65;;
42614;SDS011;28754;47.700;7.924;2023-08-17T12:37:59;4.60;;;1.90;;
42614;SDS011;28754;47.700;7.924;2023-08-17T12:40:46;7.32;;;1.65;;
42614;SDS011;28754;47.700;7.924;2023-08-17T12:43:32;7.63;;;1.75;;
42614;SDS011;28754;47.700;7.924;2023-08-17T12:46:19;5.97;;;2.50;;
42614;SDS011;28754;47.700;7.924;2023-08-17T12:49:06;5.55;;;2.13;;
42614;SDS011;28754;47.700;7.924;2023-08-17T12:51:53;7.38;;;2.83;;
42614;SDS011;28754;47.700;7.924;2023-08-17T12:54:39;7.20;;;2.33;;
42614;SDS011;28754;47.700;7.924;2023-08-17T12:57:26;7.63;;;2.78;;
42614;SDS011;28754;47.700;7.924;2023-08-17T13:00:13;5.70;;;2.00;;
42614;SDS011;28754;47.700;7.924;2023-08-17T13:03:00;6.97;;;2.88;;
42614;SDS011;28754;47.700;7.924;2023-08-17T13:05:47;6.97;;;2.53;;
42614;SDS011;28754;47.700;7.924;2023-08-17T13:08:34;9.05;;;2.03;;
42614;SDS011;28754;47.700;7.924;2023-08-17T13:11:20;4.45;;;2.00;;
42614;SDS011;28754;47.700;7.924;2023-08-17T13:14:07;9.20;;;3.65;;
42614;SDS011;28754;47.700;7.924;2023-08-17T13:16:56;7.38;;;2.10;;
42614;SDS011;28754;47.700;7.924;2023-08-17T13:19:43;5.35;;;2.33;;
42614;SDS011;28754;47.700;7.924;2023-08-17T13:22:30;5.03;;;3.00;;
42614;SDS011;28754;47.700;7.924;2023-08-17T13:25:16;3.13;;;1.85;;
42614;SDS011;28754;47.700;7.924;2023-08-17T13:28:03;6.43;;;2.28;;
42614;SDS011;28754;47.700;7.924;2023-08-17T13:30:50;12.32;;;3.00;;
42614;SDS011;28754;47.700;7.924;2023-08-17T13:33:37;6.07;;;2.55;;
42614;SDS011;28754;47.700;7.924;2023-08-17T13:36:24;5.63;;;1.98;;
42614;SDS011;28754;47.700;7.924;2023-08-17T13:39:11;6.18;;;2.25;;
42614;SDS011;28754;47.700;7.924;2023-08-17T13:41:57;8.10;;;3.05;;
42614;SDS011;28754;47.700;7.924;2023-08-17T13:44:44;8.27;;;2.00;;
42614;SDS011;28754;47.700;7.924;2023-08-17T13:47:31;4.55;;;2.05;;
42614;SDS011;28754;47.700;7.924;2023-08-17T13:50:18;7.28;;;2.47;;
42614;SDS011;28754;47.700;7.924;2023-08-17T13:53:05;6.78;;;3.00;;
42614;SDS011;28754;47.700;7.924;2023-08-17T13:55:52;4.90;;;2.20;;
42614;SDS011;28754;47.700;7.924;2023-08-17T13:58:39;11.10;;;3.03;;
42614;SDS011;28754;47.700;7.924;2023-08-17T14:01:26;8.48;;;2.35;;
42614;SDS011;28754;47.700;7.924;2023-08-17T14:04:12;4.70;;;3.20;;
42614;SDS011;28754;47.700;7.924;2023-08-17T14:07:00;6.40;;;3.15;;
42614;SDS011;28754;47.700;7.924;2023-08-17T14:09:46;6.60;;;2.58;;
42614;SDS011;28754;47.700;7.924;2023-08-17T14:12:33;6.07;;;2.47;;
42614;SDS011;28754;47.700;7.924;2023-08-17T14:15:20;3.90;;;2.20;;
42614;SDS011;28754;47.700;7.924;2023-08-17T14:18:08;4.88;;;3.20;;
42614;SDS011;28754;47.700;7.924;2023-08-17T14:20:55;6.10;;;3.30;;
42614;SDS011;28754;47.700;7.924;2023-08-17T14:23:41;3.80;;;2.50;;
42614;SDS011;28754;47.700;7.924;2023-08-17T14:26:28;5.50;;;2.88;;
42614;SDS011;28754;47.700;7.924;2023-08-17T14:29:15;6.07;;;3.30;;
42614;SDS011;28754;47.700;7.924;2023-08-17T14:32:01;6.10;;;3.55;;
42614;SDS011;28754;47.700;7.924;2023-08-17T14:34:49;7.18;;;3.17;;
42614;SDS011;28754;47.700;7.924;2023-08-17T14:37:36;7.90;;;3.70;;
42614;SDS011;28754;47.700;7.924;2023-08-17T14:40:23;11.77;;;4.32;;
42614;SDS011;28754;47.700;7.924;2023-08-17T14:43:10;6.22;;;3.92;;
42614;SDS011;28754;47.700;7.924;2023-08-17T14:45:59;9.00;;;3.88;;
42614;SDS011;28754;47.700;7.924;2023-08-17T14:48:46;8.15;;;3.70;;
42614;SDS011;28754;47.700;7.924;2023-08-17T14:51:37;5.63;;;3.53;;
42614;SDS011;28754;47.700;7.924;2023-08-17T14:54:25;10.90;;;4.15;;
42614;SDS011;28754;47.700;7.924;2023-08-17T14:57:11;7.97;;;4.43;;
42614;SDS011;28754;47.700;7.924;2023-08-17T14:59:58;12.50;;;4.53;;
42614;SDS011;28754;47.700;7.924;2023-08-17T15:02:45;5.53;;;3.47;;
42614;SDS011;28754;47.700;7.924;2023-08-17T15:05:31;8.40;;;4.43;;
42614;SDS011;28754;47.700;7.924;2023-08-17T15:08:21;5.85;;;3.95;;
42614;SDS011;28754;47.700;7.924;2023-08-17T15:11:08;12.93;;;4.05;;
42614;SDS011;28754;47.700;7.924;2023-08-17T15:13:54;7.35;;;4.30;;
42614;SDS011;28754;47.700;7.924;2023-08-17T15:16:43;6.38;;;3.75;;
42614;SDS011;28754;47.700;7.924;2023-08-17T15:19:30;7.88;;;3.85;;
42614;SDS011;28754;47.700;7.924;2023-08-17T15:22:17;4.10;;;3.22;;
42614;SDS011;28754;47.700;7.924;2023-08-17T15:25:04;6.10;;;3.05;;
42614;SDS011;28754;47.700;7.924;2023-08-17T15:27:53;7.68;;;4.63;;
42614;SDS011;28754;47.700;7.924;2023-08-17T15:30:40;5.80;;;2.78;;
42614;SDS011;28754;47.700;7.924;2023-08-17T15:33:27;6.65;;;3.35;;
42614;SDS011;28754;47.700;7.924;2023-08-17T15:36:17;11.13;;;3.90;;
42614;SDS011;28754;47.700;7.924;2023-08-17T15:39:10;8.98;;;3.67;;
42614;SDS011;28754;47.700;7.924;2023-08-17T15:41:58;6.80;;;3.63;;
42614;SDS011;28754;47.700;7.924;2023-08-17T15:44:45;4.28;;;2.70;;
42614;SDS011;28754;47.700;7.924;2023-08-17T15:47:32;4.72;;;2.65;;
42614;SDS011;28754;47.700;7.924;2023-08-17T15:50:19;5.78;;;3.60;;
42614;SDS011;28754;47.700;7.924;2023-08-17T15:53:06;5.30;;;3.08;;
42614;SDS011;28754;47.700;7.924;2023-08-17T15:55:54;7.43;;;3.58;;
42614;SDS011;28754;47.700;7.924;2023-08-17T15:58:41;8.40;;;4.25;;
42614;SDS011;28754;47.700;7.924;2023-08-17T16:01:27;6.53;;;2.92;;
42614;SDS011;28754;47.700;7.924;2023-08-17T16:04:14;11.00;;;2.85;;
42614;SDS011;28754;47.700;7.924;2023-08-17T16:07:01;9.05;;;3.28;;
42614;SDS011;28754;47.700;7.924;2023-08-17T16:09:48;4.78;;;2.78;;
42614;SDS011;28754;47.700;7.924;2023-08-17T16:12:35;4.65;;;2.50;;
42614;SDS011;28754;47.700;7.924;2023-08-17T16:15:22;10.18;;;3.17;;
42614;SDS011;28754;47.700;7.924;2023-08-17T16:18:09;7.88;;;2.70;;
42614;SDS011;28754;47.700;7.924;2023-08-17T16:20:55;7.70;;;2.85;;
42614;SDS011;28754;47.700;7.924;2023-08-17T16:23:42;7.72;;;3.58;;
42614;SDS011;28754;47.700;7.924;2023-08-17T16:26:29;6.65;;;2.95;;
42614;SDS011;28754;47.700;7.924;2023-08-17T16:29:15;5.85;;;2.63;;
42614;SDS011;28754;47.700;7.924;2023-08-17T16:32:02;3.88;;;2.30;;
42614;SDS011;28754;47.700;7.924;2023-08-17T16:34:50;6.80;;;2.92;;
42614;SDS011;28754;47.700;7.924;2023-08-17T16:37:36;9.70;;;2.90;;
42614;SDS011;28754;47.700;7.924;2023-08-17T16:40:23;12.10;;;2.53;;
42614;SDS011;28754;47.700;7.924;2023-08-17T16:43:10;9.98;;;2.95;;
42614;SDS011;28754;47.700;7.924;2023-08-17T16:45:57;8.27;;;2.70;;
42614;SDS011;28754;47.700;7.924;2023-08-17T16:48:43;12.45;;;3.15;;
42614;SDS011;28754;47.700;7.924;2023-08-17T16:51:30;8.88;;;2.78;;
42614;SDS011;28754;47.700;7.924;2023-08-17T16:54:17;5.03;;;2.65;;
42614;SDS011;28754;47.700;7.924;2023-08-17T16:57:06;12.60;;;2.80;;
42614;SDS011;28754;47.700;7.924;2023-08-17T16:59:53;4.20;;;2.78;;
42614;SDS011;28754;47.700;7.924;2023-08-17T17:02:40;5.60;;;2.50;;
42614;SDS011;28754;47.700;7.924;2023-08-17T17:05:27;3.58;;;1.95;;